sensor_id;sensor_type;location;lat;lon;timestamp;P1;durP1;ratioP1;P2;durP2;ratioP2
27495;SDS011;14929;51.336;9.416;2023-02-18T00:01:02;4.90;;;3.40;;
27495;SDS011;14929;51.336;9.416;2023-02-18T00:03:33;4.63;;;3.55;;
27495;SDS011;14929;51.336;9.416;2023-02-18T00:06:10;3.50;;;2.97;;
27495;SDS011;14929;51.336;9.416;2023-02-18T00:08:39;3.47;;;3.17;;
27495;SDS011;14929;51.336;9.416;2023-02-18T00:11:07;3.50;;;3.20;;
27495;SDS011;14929;51.336;9.416;2023-02-18T00:13:35;5.35;;;3.78;;
27495;SDS011;14929;51.336;9.416;2023-02-18T00:16:03;3.05;;;2.65;;
27495;SDS011;14929;51.336;9.416;2023-02-18T00:18:34;2.10;;;1.90;;
27495;SDS011;14929;51.336;9.416;2023-02-18T00:21:02;3.13;;;2.83;;
27495;SDS011;14929;51.336;9.416;2023-02-18T00:23:31;4.35;;;2.92;;
27495;SDS011;14929;51.336;9.416;2023-02-18T00:25:59;3.30;;;2.97;;
27495;SDS011;14929;51.336;9.416;2023-02-18T00:28:29;3.53;;;2.58;;
27495;SDS011;14929;51.336;9.416;2023-02-18T00:30:57;4.45;;;3.50;;
27495;SDS011;14929;51.336;9.416;2023-02-18T00:33:25;2.80;;;2.13;;
27495;SDS011;14929;51.336;9.416;2023-02-18T00:35:53;3.03;;;2.53;;
27495;SDS011;14929;51.336;9.416;2023-02-18T00:38:28;1.85;;;1.75;;
27495;SDS011;14929;51.336;9.416;2023-02-18T00:40:57;4.63;;;2.47;;
27495;SDS011;14929;51.336;9.416;2023-02-18T00:43:25;3.20;;;2.88;;
27495;SDS011;14929;51.336;9.416;2023-02-18T00:45:53;4.80;;;3.25;;
27495;SDS011;14929;51.336;9.416;2023-02-18T00:48:20;3.17;;;2.30;;
27495;SDS011;14929;51.336;9.416;2023-02-18T00:50:48;1.92;;;1.80;;
27495;SDS011;14929;51.336;9.416;2023-02-18T00:53:15;3.03;;;2.83;;
27495;SDS011;14929;51.336;9.416;2023-02-18T00:55:43;3.75;;;2.83;;
27495;SDS011;14929;51.336;9.416;2023-02-18T00:58:14;4.03;;;2.70;;
27495;SDS011;14929;51.336;9.416;2023-02-18T01:00:42;3.40;;;2.83;;
27495;SDS011;14929;51.336;9.416;2023-02-18T01:03:10;3.17;;;2.55;;
27495;SDS011;14929;51.336;9.416;2023-02-18T01:05:39;2.97;;;2.60;;
27495;SDS011;14929;51.336;9.416;2023-02-18T01:08:08;4.28;;;3.13;;
27495;SDS011;14929;51.336;9.416;2023-02-18T01:10:39;4.43;;;2.80;;
27495;SDS011;14929;51.336;9.416;2023-02-18T01:13:10;4.60;;;3.03;;
27495;SDS011;14929;51.336;9.416;2023-02-18T01:15:40;2.95;;;2.75;;
27495;SDS011;14929;51.336;9.416;2023-02-18T01:18:08;4.20;;;2.70;;
27495;SDS011;14929;51.336;9.416;2023-02-18T01:20:37;4.57;;;2.45;;
27495;SDS011;14929;51.336;9.416;2023-02-18T01:23:06;5.32;;;2.80;;
27495;SDS011;14929;51.336;9.416;2023-02-18T01:25:34;3.00;;;2.47;;
27495;SDS011;14929;51.336;9.416;2023-02-18T01:28:02;3.90;;;2.47;;
27495;SDS011;14929;51.336;9.416;2023-02-18T01:30:30;3.22;;;2.92;;
27495;SDS011;14929;51.336;9.416;2023-02-18T01:33:00;2.45;;;2.22;;
27495;SDS011;14929;51.336;9.416;2023-02-18T01:35:28;3.67;;;2.72;;
27495;SDS011;14929;51.336;9.416;2023-02-18T01:37:55;2.05;;;1.92;;
27495;SDS011;14929;51.336;9.416;2023-02-18T01:40:24;4.47;;;1.70;;
27495;SDS011;14929;51.336;9.416;2023-02-18T01:42:53;1.60;;;1.50;;
27495;SDS011;14929;51.336;9.416;2023-02-18T01:48:35;2.85;;;2.50;;
27495;SDS011;14929;51.336;9.416;2023-02-18T01:51:08;2.55;;;1.83;;
27495;SDS011;14929;51.336;9.416;2023-02-18T01:53:41;1.83;;;1.73;;
27495;SDS011;14929;51.336;9.416;2023-02-18T01:56:15;2.40;;;2.20;;
27495;SDS011;14929;51.336;9.416;2023-02-18T01:58:48;3.72;;;2.55;;
27495;SDS011;14929;51.336;9.416;2023-02-18T02:01:16;2.55;;;2.30;;
27495;SDS011;14929;51.336;9.416;2023-02-18T02:03:45;2.00;;;1.90;;
27495;SDS011;14929;51.336;9.416;2023-02-18T02:06:15;1.80;;;1.60;;
27495;SDS011;14929;51.336;9.416;2023-02-18T02:08:46;2.50;;;2.30;;
27495;SDS011;14929;51.336;9.416;2023-02-18T02:11:20;2.17;;;1.50;;
27495;SDS011;14929;51.336;9.416;2023-02-18T02:14:02;1.83;;;1.73;;
27495;SDS011;14929;51.336;9.416;2023-02-18T02:16:42;1.90;;;1.80;;
27495;SDS011;14929;51.336;9.416;2023-02-18T02:26:04;1.52;;;1.42;;
27495;SDS011;14929;51.336;9.416;2023-02-18T02:29:09;3.22;;;1.95;;
27495;SDS011;14929;51.336;9.416;2023-02-18T02:35:26;1.85;;;1.50;;
27495;SDS011;14929;51.336;9.416;2023-02-18T02:37:55;1.88;;;1.77;;
27495;SDS011;14929;51.336;9.416;2023-02-18T02:40:29;1.73;;;1.63;;
27495;SDS011;14929;51.336;9.416;2023-02-18T02:43:04;2.17;;;1.98;;
27495;SDS011;14929;51.336;9.416;2023-02-18T02:45:37;1.60;;;1.50;;
27495;SDS011;14929;51.336;9.416;2023-02-18T02:48:15;2.67;;;1.95;;
27495;SDS011;14929;51.336;9.416;2023-02-18T02:50:55;1.60;;;1.50;;
27495;SDS011;14929;51.336;9.416;2023-02-18T02:53:30;1.55;;;1.45;;
27495;SDS011;14929;51.336;9.416;2023-02-18T02:56:00;1.30;;;1.20;;
27495;SDS011;14929;51.336;9.416;2023-02-18T02:58:28;1.80;;;1.70;;
27495;SDS011;14929;51.336;9.416;2023-02-18T03:01:01;1.40;;;1.38;;
27495;SDS011;14929;51.336;9.416;2023-02-18T03:03:53;1.70;;;1.60;;
27495;SDS011;14929;51.336;9.416;2023-02-18T03:07:07;1.30;;;1.20;;
27495;SDS011;14929;51.336;9.416;2023-02-18T03:09:49;1.92;;;1.73;;
27495;SDS011;14929;51.336;9.416;2023-02-18T03:12:32;1.73;;;1.58;;
27495;SDS011;14929;51.336;9.416;2023-02-18T03:15:06;1.40;;;1.30;;
27495;SDS011;14929;51.336;9.416;2023-02-18T03:17:40;1.25;;;1.17;;
27495;SDS011;14929;51.336;9.416;2023-02-18T03:20:15;1.65;;;1.52;;
27495;SDS011;14929;51.336;9.416;2023-02-18T03:22:48;2.30;;;2.17;;
27495;SDS011;14929;51.336;9.416;2023-02-18T03:25:17;1.60;;;1.50;;
27495;SDS011;14929;51.336;9.416;2023-02-18T03:27:47;1.73;;;1.63;;
27495;SDS011;14929;51.336;9.416;2023-02-18T03:30:16;2.60;;;2.08;;
27495;SDS011;14929;51.336;9.416;2023-02-18T03:32:48;1.67;;;1.58;;
27495;SDS011;14929;51.336;9.416;2023-02-18T03:35:20;1.70;;;1.60;;
27495;SDS011;14929;51.336;9.416;2023-02-18T03:37:50;2.10;;;2.00;;
27495;SDS011;14929;51.336;9.416;2023-02-18T03:40:24;1.67;;;1.58;;
27495;SDS011;14929;51.336;9.416;2023-02-18T03:42:53;2.33;;;2.20;;
27495;SDS011;14929;51.336;9.416;2023-02-18T03:45:21;2.80;;;2.47;;
27495;SDS011;14929;51.336;9.416;2023-02-18T03:47:48;1.92;;;1.83;;
27495;SDS011;14929;51.336;9.416;2023-02-18T03:50:16;2.80;;;2.60;;
27495;SDS011;14929;51.336;9.416;2023-02-18T03:52:44;2.60;;;2.40;;
27495;SDS011;14929;51.336;9.416;2023-02-18T03:55:13;2.05;;;1.88;;
27495;SDS011;14929;51.336;9.416;2023-02-18T03:57:40;2.08;;;1.90;;
27495;SDS011;14929;51.336;9.416;2023-02-18T04:00:08;2.40;;;2.25;;
27495;SDS011;14929;51.336;9.416;2023-02-18T04:02:37;2.30;;;2.10;;
27495;SDS011;14929;51.336;9.416;2023-02-18T04:05:04;2.15;;;1.98;;
27495;SDS011;14929;51.336;9.416;2023-02-18T04:07:33;2.42;;;2.22;;
27495;SDS011;14929;51.336;9.416;2023-02-18T04:10:00;1.95;;;1.85;;
27495;SDS011;14929;51.336;9.416;2023-02-18T04:12:29;2.70;;;2.50;;
27495;SDS011;14929;51.336;9.416;2023-02-18T04:14:56;2.67;;;2.47;;
27495;SDS011;14929;51.336;9.416;2023-02-18T04:17:24;2.38;;;2.25;;
27495;SDS011;14929;51.336;9.416;2023-02-18T04:19:51;2.53;;;2.33;;
27495;SDS011;14929;51.336;9.416;2023-02-18T04:22:19;1.92;;;1.83;;
27495;SDS011;14929;51.336;9.416;2023-02-18T04:24:46;2.08;;;1.98;;
27495;SDS011;14929;51.336;9.416;2023-02-18T04:27:14;2.10;;;1.90;;
27495;SDS011;14929;51.336;9.416;2023-02-18T04:29:43;2.00;;;1.90;;
27495;SDS011;14929;51.336;9.416;2023-02-18T04:32:10;1.63;;;1.52;;
27495;SDS011;14929;51.336;9.416;2023-02-18T04:34:38;2.40;;;2.20;;
27495;SDS011;14929;51.336;9.416;2023-02-18T04:37:05;2.28;;;2.08;;
27495;SDS011;14929;51.336;9.416;2023-02-18T04:39:33;2.15;;;1.73;;
27495;SDS011;14929;51.336;9.416;2023-02-18T04:42:00;2.40;;;1.90;;
27495;SDS011;14929;51.336;9.416;2023-02-18T04:44:32;1.95;;;1.85;;
27495;SDS011;14929;51.336;9.416;2023-02-18T04:47:01;2.30;;;2.10;;
27495;SDS011;14929;51.336;9.416;2023-02-18T04:49:29;2.00;;;1.90;;
27495;SDS011;14929;51.336;9.416;2023-02-18T04:51:56;2.35;;;2.15;;
27495;SDS011;14929;51.336;9.416;2023-02-18T04:54:24;2.60;;;1.77;;
27495;SDS011;14929;51.336;9.416;2023-02-18T04:56:51;2.45;;;2.25;;
27495;SDS011;14929;51.336;9.416;2023-02-18T04:59:19;1.80;;;1.70;;
27495;SDS011;14929;51.336;9.416;2023-02-18T05:01:47;2.65;;;2.45;;
27495;SDS011;14929;51.336;9.416;2023-02-18T05:04:15;2.22;;;2.03;;
27495;SDS011;14929;51.336;9.416;2023-02-18T05:06:43;2.72;;;2.53;;
27495;SDS011;14929;51.336;9.416;2023-02-18T05:09:10;1.73;;;1.63;;
27495;SDS011;14929;51.336;9.416;2023-02-18T05:11:38;2.40;;;2.20;;
27495;SDS011;14929;51.336;9.416;2023-02-18T05:14:06;2.28;;;2.13;;
27495;SDS011;14929;51.336;9.416;2023-02-18T05:16:33;2.15;;;2.00;;
27495;SDS011;14929;51.336;9.416;2023-02-18T05:19:01;2.85;;;2.65;;
27495;SDS011;14929;51.336;9.416;2023-02-18T05:21:30;2.42;;;2.08;;
27495;SDS011;14929;51.336;9.416;2023-02-18T05:23:58;2.30;;;2.10;;
27495;SDS011;14929;51.336;9.416;2023-02-18T05:26:25;2.30;;;2.10;;
27495;SDS011;14929;51.336;9.416;2023-02-18T05:28:52;2.88;;;2.67;;
27495;SDS011;14929;51.336;9.416;2023-02-18T05:31:21;1.90;;;1.80;;
27495;SDS011;14929;51.336;9.416;2023-02-18T05:33:48;3.13;;;1.90;;
27495;SDS011;14929;51.336;9.416;2023-02-18T05:36:16;2.42;;;2.22;;
27495;SDS011;14929;51.336;9.416;2023-02-18T05:38:45;2.72;;;2.53;;
27495;SDS011;14929;51.336;9.416;2023-02-18T05:41:12;3.05;;;2.75;;
27495;SDS011;14929;51.336;9.416;2023-02-18T05:43:39;2.55;;;2.35;;
27495;SDS011;14929;51.336;9.416;2023-02-18T05:46:24;3.35;;;3.05;;
27495;SDS011;14929;51.336;9.416;2023-02-18T05:48:52;2.85;;;2.55;;
27495;SDS011;14929;51.336;9.416;2023-02-18T05:51:19;2.63;;;2.08;;
27495;SDS011;14929;51.336;9.416;2023-02-18T05:53:48;2.33;;;2.13;;
27495;SDS011;14929;51.336;9.416;2023-02-18T05:56:16;1.58;;;1.48;;
27495;SDS011;14929;51.336;9.416;2023-02-18T05:58:43;2.00;;;1.90;;
27495;SDS011;14929;51.336;9.416;2023-02-18T06:01:11;2.42;;;2.22;;
27495;SDS011;14929;51.336;9.416;2023-02-18T06:03:39;2.40;;;2.20;;
27495;SDS011;14929;51.336;9.416;2023-02-18T06:06:06;2.17;;;2.08;;
27495;SDS011;14929;51.336;9.416;2023-02-18T06:08:34;2.55;;;2.35;;
27495;SDS011;14929;51.336;9.416;2023-02-18T06:11:03;2.42;;;2.22;;
27495;SDS011;14929;51.336;9.416;2023-02-18T06:13:30;2.05;;;1.90;;
27495;SDS011;14929;51.336;9.416;2023-02-18T06:15:58;2.03;;;1.92;;
27495;SDS011;14929;51.336;9.416;2023-02-18T06:18:25;3.15;;;2.50;;
27495;SDS011;14929;51.336;9.416;2023-02-18T06:20:54;1.65;;;1.55;;
27495;SDS011;14929;51.336;9.416;2023-02-18T06:23:21;1.77;;;1.67;;
27495;SDS011;14929;51.336;9.416;2023-02-18T06:25:49;2.20;;;2.00;;
27495;SDS011;14929;51.336;9.416;2023-02-18T06:28:18;2.40;;;2.20;;
27495;SDS011;14929;51.336;9.416;2023-02-18T06:30:45;1.48;;;1.38;;
27495;SDS011;14929;51.336;9.416;2023-02-18T06:33:13;2.00;;;1.90;;
27495;SDS011;14929;51.336;9.416;2023-02-18T06:35:40;1.85;;;1.75;;
27495;SDS011;14929;51.336;9.416;2023-02-18T06:38:08;1.65;;;1.55;;
27495;SDS011;14929;51.336;9.416;2023-02-18T06:40:35;1.10;;;1.10;;
27495;SDS011;14929;51.336;9.416;2023-02-18T06:43:03;1.15;;;1.15;;
27495;SDS011;14929;51.336;9.416;2023-02-18T06:45:32;1.20;;;1.10;;
27495;SDS011;14929;51.336;9.416;2023-02-18T06:47:59;1.40;;;1.30;;
27495;SDS011;14929;51.336;9.416;2023-02-18T06:50:26;1.10;;;1.00;;
27495;SDS011;14929;51.336;9.416;2023-02-18T06:52:54;0.90;;;0.90;;
27495;SDS011;14929;51.336;9.416;2023-02-18T06:55:21;0.80;;;0.80;;
27495;SDS011;14929;51.336;9.416;2023-02-18T06:57:49;0.75;;;0.75;;
27495;SDS011;14929;51.336;9.416;2023-02-18T07:00:17;0.70;;;0.70;;
27495;SDS011;14929;51.336;9.416;2023-02-18T07:02:48;1.00;;;1.00;;
27495;SDS011;14929;51.336;9.416;2023-02-18T07:05:15;0.77;;;0.77;;
27495;SDS011;14929;51.336;9.416;2023-02-18T07:07:43;0.60;;;0.60;;
27495;SDS011;14929;51.336;9.416;2023-02-18T07:10:11;1.00;;;1.00;;
27495;SDS011;14929;51.336;9.416;2023-02-18T07:12:39;0.63;;;0.63;;
27495;SDS011;14929;51.336;9.416;2023-02-18T07:15:06;0.57;;;0.57;;
27495;SDS011;14929;51.336;9.416;2023-02-18T07:17:35;0.30;;;0.30;;
27495;SDS011;14929;51.336;9.416;2023-02-18T07:20:04;0.60;;;0.60;;
27495;SDS011;14929;51.336;9.416;2023-02-18T07:22:33;0.60;;;0.60;;
27495;SDS011;14929;51.336;9.416;2023-02-18T07:25:01;0.70;;;0.60;;
27495;SDS011;14929;51.336;9.416;2023-02-18T07:27:28;0.40;;;0.40;;
27495;SDS011;14929;51.336;9.416;2023-02-18T07:29:56;0.57;;;0.57;;
27495;SDS011;14929;51.336;9.416;2023-02-18T07:32:23;0.40;;;0.40;;
27495;SDS011;14929;51.336;9.416;2023-02-18T07:34:51;0.32;;;0.32;;
27495;SDS011;14929;51.336;9.416;2023-02-18T07:37:20;0.30;;;0.30;;
27495;SDS011;14929;51.336;9.416;2023-02-18T07:39:47;0.43;;;0.43;;
27495;SDS011;14929;51.336;9.416;2023-02-18T07:42:15;0.43;;;0.43;;
27495;SDS011;14929;51.336;9.416;2023-02-18T07:44:42;0.20;;;0.20;;
27495;SDS011;14929;51.336;9.416;2023-02-18T07:47:12;0.30;;;0.25;;
27495;SDS011;14929;51.336;9.416;2023-02-18T07:49:43;0.40;;;0.32;;
27495;SDS011;14929;51.336;9.416;2023-02-18T07:52:11;0.30;;;0.30;;
27495;SDS011;14929;51.336;9.416;2023-02-18T07:54:40;0.30;;;0.30;;
27495;SDS011;14929;51.336;9.416;2023-02-18T07:57:08;0.50;;;0.50;;
27495;SDS011;14929;51.336;9.416;2023-02-18T07:59:35;0.40;;;0.40;;
27495;SDS011;14929;51.336;9.416;2023-02-18T08:02:03;0.13;;;0.13;;
27495;SDS011;14929;51.336;9.416;2023-02-18T08:04:31;0.20;;;0.20;;
27495;SDS011;14929;51.336;9.416;2023-02-18T08:06:59;0.40;;;0.40;;
27495;SDS011;14929;51.336;9.416;2023-02-18T08:09:26;0.30;;;0.30;;
27495;SDS011;14929;51.336;9.416;2023-02-18T08:11:55;0.30;;;0.30;;
27495;SDS011;14929;51.336;9.416;2023-02-18T08:14:23;0.38;;;0.38;;
27495;SDS011;14929;51.336;9.416;2023-02-18T08:16:50;0.10;;;0.10;;
27495;SDS011;14929;51.336;9.416;2023-02-18T08:19:19;0.35;;;0.35;;
27495;SDS011;14929;51.336;9.416;2023-02-18T08:21:46;0.10;;;0.10;;
27495;SDS011;14929;51.336;9.416;2023-02-18T08:24:13;0.20;;;0.20;;
27495;SDS011;14929;51.336;9.416;2023-02-18T08:26:41;0.43;;;0.43;;
27495;SDS011;14929;51.336;9.416;2023-02-18T08:29:10;0.30;;;0.30;;
27495;SDS011;14929;51.336;9.416;2023-02-18T08:31:37;0.20;;;0.20;;
27495;SDS011;14929;51.336;9.416;2023-02-18T08:34:05;0.20;;;0.20;;
27495;SDS011;14929;51.336;9.416;2023-02-18T08:36:34;0.30;;;0.30;;
27495;SDS011;14929;51.336;9.416;2023-02-18T08:39:02;0.40;;;0.40;;
27495;SDS011;14929;51.336;9.416;2023-02-18T08:41:29;0.30;;;0.30;;
27495;SDS011;14929;51.336;9.416;2023-02-18T08:43:57;0.77;;;0.40;;
27495;SDS011;14929;51.336;9.416;2023-02-18T08:46:26;0.20;;;0.20;;
27495;SDS011;14929;51.336;9.416;2023-02-18T08:48:53;0.20;;;0.20;;
27495;SDS011;14929;51.336;9.416;2023-02-18T08:51:21;0.40;;;0.38;;
27495;SDS011;14929;51.336;9.416;2023-02-18T08:53:50;0.25;;;0.25;;
27495;SDS011;14929;51.336;9.416;2023-02-18T08:56:17;0.20;;;0.20;;
27495;SDS011;14929;51.336;9.416;2023-02-18T08:58:45;0.30;;;0.30;;
27495;SDS011;14929;51.336;9.416;2023-02-18T09:01:12;0.30;;;0.30;;
27495;SDS011;14929;51.336;9.416;2023-02-18T09:03:41;0.10;;;0.10;;
27495;SDS011;14929;51.336;9.416;2023-02-18T09:08:37;0.20;;;0.20;;
27495;SDS011;14929;51.336;9.416;2023-02-18T09:11:04;0.20;;;0.20;;
27495;SDS011;14929;51.336;9.416;2023-02-18T09:13:32;0.22;;;0.22;;
27495;SDS011;14929;51.336;9.416;2023-02-18T09:16:01;0.20;;;0.20;;
27495;SDS011;14929;51.336;9.416;2023-02-18T09:18:31;0.30;;;0.30;;
27495;SDS011;14929;51.336;9.416;2023-02-18T09:21:02;0.30;;;0.30;;
27495;SDS011;14929;51.336;9.416;2023-02-18T09:23:33;0.30;;;0.30;;
27495;SDS011;14929;51.336;9.416;2023-02-18T09:26:03;0.20;;;0.20;;
27495;SDS011;14929;51.336;9.416;2023-02-18T09:28:31;0.32;;;0.32;;
27495;SDS011;14929;51.336;9.416;2023-02-18T09:31:02;0.20;;;0.20;;
27495;SDS011;14929;51.336;9.416;2023-02-18T09:33:33;0.40;;;0.40;;
27495;SDS011;14929;51.336;9.416;2023-02-18T09:36:03;0.30;;;0.30;;
27495;SDS011;14929;51.336;9.416;2023-02-18T09:38:31;0.20;;;0.20;;
27495;SDS011;14929;51.336;9.416;2023-02-18T09:41:00;0.20;;;0.20;;
27495;SDS011;14929;51.336;9.416;2023-02-18T09:43:31;0.30;;;0.30;;
27495;SDS011;14929;51.336;9.416;2023-02-18T09:46:01;0.30;;;0.30;;
27495;SDS011;14929;51.336;9.416;2023-02-18T09:48:31;0.30;;;0.30;;
27495;SDS011;14929;51.336;9.416;2023-02-18T09:51:00;0.30;;;0.30;;
27495;SDS011;14929;51.336;9.416;2023-02-18T09:53:29;0.20;;;0.20;;
27495;SDS011;14929;51.336;9.416;2023-02-18T09:55:57;0.35;;;0.35;;
27495;SDS011;14929;51.336;9.416;2023-02-18T09:58:25;0.30;;;0.30;;
27495;SDS011;14929;51.336;9.416;2023-02-18T10:01:03;2.17;;;0.75;;
27495;SDS011;14929;51.336;9.416;2023-02-18T10:03:35;0.50;;;0.50;;
27495;SDS011;14929;51.336;9.416;2023-02-18T10:06:07;1.42;;;1.00;;
27495;SDS011;14929;51.336;9.416;2023-02-18T10:08:37;0.50;;;0.50;;
27495;SDS011;14929;51.336;9.416;2023-02-18T10:11:09;0.70;;;0.70;;
27495;SDS011;14929;51.336;9.416;2023-02-18T10:13:40;0.70;;;0.70;;
27495;SDS011;14929;51.336;9.416;2023-02-18T10:16:09;0.50;;;0.50;;
27495;SDS011;14929;51.336;9.416;2023-02-18T10:18:43;0.35;;;0.35;;
27495;SDS011;14929;51.336;9.416;2023-02-18T10:21:15;0.30;;;0.30;;
27495;SDS011;14929;51.336;9.416;2023-02-18T10:23:49;0.45;;;0.45;;
27495;SDS011;14929;51.336;9.416;2023-02-18T10:26:21;0.60;;;0.60;;
27495;SDS011;14929;51.336;9.416;2023-02-18T10:28:48;0.60;;;0.60;;
27495;SDS011;14929;51.336;9.416;2023-02-18T10:31:17;0.60;;;0.60;;
27495;SDS011;14929;51.336;9.416;2023-02-18T10:33:49;0.63;;;0.63;;
27495;SDS011;14929;51.336;9.416;2023-02-18T10:36:26;0.60;;;0.60;;
27495;SDS011;14929;51.336;9.416;2023-02-18T10:39:01;0.70;;;0.70;;
27495;SDS011;14929;51.336;9.416;2023-02-18T10:41:51;1.00;;;1.00;;
27495;SDS011;14929;51.336;9.416;2023-02-18T10:44:25;0.57;;;0.57;;
27495;SDS011;14929;51.336;9.416;2023-02-18T10:47:02;0.82;;;0.82;;
27495;SDS011;14929;51.336;9.416;2023-02-18T10:49:52;1.25;;;0.90;;
27495;SDS011;14929;51.336;9.416;2023-02-18T10:52:26;0.70;;;0.70;;
27495;SDS011;14929;51.336;9.416;2023-02-18T10:54:58;0.70;;;0.70;;
27495;SDS011;14929;51.336;9.416;2023-02-18T10:57:30;0.70;;;0.70;;
27495;SDS011;14929;51.336;9.416;2023-02-18T10:59:59;0.52;;;0.52;;
27495;SDS011;14929;51.336;9.416;2023-02-18T11:02:37;0.50;;;0.50;;
27495;SDS011;14929;51.336;9.416;2023-02-18T11:05:11;0.60;;;0.60;;
27495;SDS011;14929;51.336;9.416;2023-02-18T11:07:47;0.60;;;0.60;;
27495;SDS011;14929;51.336;9.416;2023-02-18T11:10:21;0.60;;;0.60;;
27495;SDS011;14929;51.336;9.416;2023-02-18T11:12:52;0.50;;;0.50;;
27495;SDS011;14929;51.336;9.416;2023-02-18T11:15:24;1.17;;;0.70;;
27495;SDS011;14929;51.336;9.416;2023-02-18T11:17:53;0.57;;;0.57;;
27495;SDS011;14929;51.336;9.416;2023-02-18T11:20:25;0.80;;;0.80;;
27495;SDS011;14929;51.336;9.416;2023-02-18T11:22:58;0.95;;;0.90;;
27495;SDS011;14929;51.336;9.416;2023-02-18T11:25:54;0.80;;;0.80;;
27495;SDS011;14929;51.336;9.416;2023-02-18T11:28:26;2.15;;;1.05;;
27495;SDS011;14929;51.336;9.416;2023-02-18T11:31:06;0.93;;;0.90;;
27495;SDS011;14929;51.336;9.416;2023-02-18T11:33:36;0.80;;;0.80;;
27495;SDS011;14929;51.336;9.416;2023-02-18T11:36:15;0.82;;;0.82;;
27495;SDS011;14929;51.336;9.416;2023-02-18T11:38:49;0.60;;;0.60;;
27495;SDS011;14929;51.336;9.416;2023-02-18T11:41:20;0.90;;;0.90;;
27495;SDS011;14929;51.336;9.416;2023-02-18T11:43:55;0.57;;;0.50;;
27495;SDS011;14929;51.336;9.416;2023-02-18T11:46:23;0.70;;;0.70;;
27495;SDS011;14929;51.336;9.416;2023-02-18T11:48:53;0.70;;;0.70;;
27495;SDS011;14929;51.336;9.416;2023-02-18T11:51:22;0.60;;;0.60;;
27495;SDS011;14929;51.336;9.416;2023-02-18T11:53:54;0.90;;;0.90;;
27495;SDS011;14929;51.336;9.416;2023-02-18T11:56:26;1.10;;;1.10;;
27495;SDS011;14929;51.336;9.416;2023-02-18T11:58:57;1.23;;;0.80;;
27495;SDS011;14929;51.336;9.416;2023-02-18T12:01:27;0.85;;;0.85;;
27495;SDS011;14929;51.336;9.416;2023-02-18T12:04:06;0.88;;;0.68;;
27495;SDS011;14929;51.336;9.416;2023-02-18T12:06:38;0.60;;;0.60;;
27495;SDS011;14929;51.336;9.416;2023-02-18T12:09:17;0.80;;;0.80;;
27495;SDS011;14929;51.336;9.416;2023-02-18T12:11:51;0.70;;;0.70;;
27495;SDS011;14929;51.336;9.416;2023-02-18T12:14:21;0.82;;;0.82;;
27495;SDS011;14929;51.336;9.416;2023-02-18T12:17:05;0.70;;;0.70;;
27495;SDS011;14929;51.336;9.416;2023-02-18T12:19:58;0.85;;;0.70;;
27495;SDS011;14929;51.336;9.416;2023-02-18T12:22:40;0.60;;;0.60;;
27495;SDS011;14929;51.336;9.416;2023-02-18T12:25:19;0.60;;;0.60;;
27495;SDS011;14929;51.336;9.416;2023-02-18T12:27:55;0.73;;;0.73;;
27495;SDS011;14929;51.336;9.416;2023-02-18T12:30:47;0.70;;;0.70;;
27495;SDS011;14929;51.336;9.416;2023-02-18T12:33:40;0.80;;;0.50;;
27495;SDS011;14929;51.336;9.416;2023-02-18T12:36:19;0.65;;;0.65;;
27495;SDS011;14929;51.336;9.416;2023-02-18T12:39:02;0.70;;;0.70;;
27495;SDS011;14929;51.336;9.416;2023-02-18T12:41:44;1.17;;;0.70;;
27495;SDS011;14929;51.336;9.416;2023-02-18T12:44:26;0.80;;;0.80;;
27495;SDS011;14929;51.336;9.416;2023-02-18T12:50:22;0.43;;;0.43;;
27495;SDS011;14929;51.336;9.416;2023-02-18T12:53:24;0.52;;;0.52;;
27495;SDS011;14929;51.336;9.416;2023-02-18T12:56:22;0.50;;;0.50;;
27495;SDS011;14929;51.336;9.416;2023-02-18T12:59:06;0.50;;;0.50;;
27495;SDS011;14929;51.336;9.416;2023-02-18T13:01:41;0.30;;;0.30;;
27495;SDS011;14929;51.336;9.416;2023-02-18T13:04:23;0.30;;;0.30;;
27495;SDS011;14929;51.336;9.416;2023-02-18T13:13:12;0.40;;;0.38;;
27495;SDS011;14929;51.336;9.416;2023-02-18T13:15:45;0.40;;;0.40;;
27495;SDS011;14929;51.336;9.416;2023-02-18T13:18:17;0.50;;;0.50;;
27495;SDS011;14929;51.336;9.416;2023-02-18T13:20:48;0.77;;;0.63;;
27495;SDS011;14929;51.336;9.416;2023-02-18T13:23:18;0.40;;;0.40;;
27495;SDS011;14929;51.336;9.416;2023-02-18T13:25:49;0.50;;;0.50;;
27495;SDS011;14929;51.336;9.416;2023-02-18T13:28:22;0.90;;;0.40;;
27495;SDS011;14929;51.336;9.416;2023-02-18T13:31:00;0.75;;;0.50;;
27495;SDS011;14929;51.336;9.416;2023-02-18T13:33:43;0.40;;;0.40;;
27495;SDS011;14929;51.336;9.416;2023-02-18T13:36:18;0.38;;;0.38;;
27495;SDS011;14929;51.336;9.416;2023-02-18T13:39:03;0.30;;;0.30;;
27495;SDS011;14929;51.336;9.416;2023-02-18T13:41:37;0.40;;;0.40;;
27495;SDS011;14929;51.336;9.416;2023-02-18T13:44:07;0.68;;;0.45;;
27495;SDS011;14929;51.336;9.416;2023-02-18T13:46:52;0.28;;;0.28;;
27495;SDS011;14929;51.336;9.416;2023-02-18T13:49:21;0.38;;;0.38;;
27495;SDS011;14929;51.336;9.416;2023-02-18T13:51:50;0.50;;;0.50;;
27495;SDS011;14929;51.336;9.416;2023-02-18T13:54:20;0.50;;;0.50;;
27495;SDS011;14929;51.336;9.416;2023-02-18T13:56:52;0.40;;;0.40;;
27495;SDS011;14929;51.336;9.416;2023-02-18T13:59:24;0.40;;;0.40;;
27495;SDS011;14929;51.336;9.416;2023-02-18T14:02:19;0.40;;;0.40;;
27495;SDS011;14929;51.336;9.416;2023-02-18T14:04:58;0.47;;;0.47;;
27495;SDS011;14929;51.336;9.416;2023-02-18T14:07:46;0.50;;;0.50;;
27495;SDS011;14929;51.336;9.416;2023-02-18T14:10:24;0.30;;;0.30;;
27495;SDS011;14929;51.336;9.416;2023-02-18T14:15:56;0.50;;;0.50;;
27495;SDS011;14929;51.336;9.416;2023-02-18T14:21:36;3.88;;;3.05;;
27495;SDS011;14929;51.336;9.416;2023-02-18T14:24:06;2.80;;;2.55;;
27495;SDS011;14929;51.336;9.416;2023-02-18T14:26:44;0.75;;;0.75;;
27495;SDS011;14929;51.336;9.416;2023-02-18T14:29:19;0.40;;;0.40;;
27495;SDS011;14929;51.336;9.416;2023-02-18T14:31:53;1.35;;;1.25;;
27495;SDS011;14929;51.336;9.416;2023-02-18T14:34:37;0.88;;;0.88;;
27495;SDS011;14929;51.336;9.416;2023-02-18T14:37:39;0.22;;;0.22;;
27495;SDS011;14929;51.336;9.416;2023-02-18T14:44:01;0.60;;;0.60;;
27495;SDS011;14929;51.336;9.416;2023-02-18T14:46:42;0.70;;;0.70;;
27495;SDS011;14929;51.336;9.416;2023-02-18T14:49:31;0.82;;;0.82;;
27495;SDS011;14929;51.336;9.416;2023-02-18T14:52:09;0.68;;;0.68;;
27495;SDS011;14929;51.336;9.416;2023-02-18T14:54:41;0.75;;;0.75;;
27495;SDS011;14929;51.336;9.416;2023-02-18T14:57:12;0.80;;;0.80;;
27495;SDS011;14929;51.336;9.416;2023-02-18T14:59:42;1.33;;;0.80;;
27495;SDS011;14929;51.336;9.416;2023-02-18T15:02:15;0.63;;;0.63;;
27495;SDS011;14929;51.336;9.416;2023-02-18T15:07:18;0.57;;;0.57;;
27495;SDS011;14929;51.336;9.416;2023-02-18T15:09:47;0.68;;;0.68;;
27495;SDS011;14929;51.336;9.416;2023-02-18T15:12:19;0.50;;;0.50;;
27495;SDS011;14929;51.336;9.416;2023-02-18T15:14:49;0.60;;;0.60;;
27495;SDS011;14929;51.336;9.416;2023-02-18T15:17:21;0.50;;;0.50;;
27495;SDS011;14929;51.336;9.416;2023-02-18T15:19:51;0.45;;;0.45;;
27495;SDS011;14929;51.336;9.416;2023-02-18T15:22:22;0.47;;;0.47;;
27495;SDS011;14929;51.336;9.416;2023-02-18T15:24:52;0.52;;;0.52;;
27495;SDS011;14929;51.336;9.416;2023-02-18T15:27:21;0.40;;;0.40;;
27495;SDS011;14929;51.336;9.416;2023-02-18T15:29:51;0.40;;;0.40;;
27495;SDS011;14929;51.336;9.416;2023-02-18T15:32:23;0.30;;;0.30;;
27495;SDS011;14929;51.336;9.416;2023-02-18T15:34:53;0.32;;;0.32;;
27495;SDS011;14929;51.336;9.416;2023-02-18T15:37:27;0.30;;;0.30;;
27495;SDS011;14929;51.336;9.416;2023-02-18T15:39:55;0.40;;;0.40;;
27495;SDS011;14929;51.336;9.416;2023-02-18T15:42:24;2.35;;;2.17;;
27495;SDS011;14929;51.336;9.416;2023-02-18T15:44:55;1.25;;;1.15;;
27495;SDS011;14929;51.336;9.416;2023-02-18T15:47:23;0.70;;;0.70;;
27495;SDS011;14929;51.336;9.416;2023-02-18T15:49:51;0.70;;;0.70;;
27495;SDS011;14929;51.336;9.416;2023-02-18T15:52:24;0.60;;;0.60;;